sensor_id;sensor_type;location;lat;lon;timestamp;P1;durP1;ratioP1;P2;durP2;ratioP2
9823;SDS011;4951;50.778;7.196;2023-06-14T00:02:42;5.00;;;3.90;;
9823;SDS011;4951;50.778;7.196;2023-06-14T00:06:51;5.93;;;4.40;;
9823;SDS011;4951;50.778;7.196;2023-06-14T00:13:02;5.23;;;4.20;;
9823;SDS011;4951;50.778;7.196;2023-06-14T00:17:05;7.60;;;4.47;;
9823;SDS011;4951;50.778;7.196;2023-06-14T00:19:51;6.77;;;4.63;;
9823;SDS011;4951;50.778;7.196;2023-06-14T00:22:58;4.80;;;4.40;;
9823;SDS011;4951;50.778;7.196;2023-06-14T00:25:55;5.80;;;4.90;;
9823;SDS011;4951;50.778;7.196;2023-06-14T00:31:40;6.77;;;4.70;;
9823;SDS011;4951;50.778;7.196;2023-06-14T00:34:46;4.77;;;4.33;;
9823;SDS011;4951;50.778;7.196;2023-06-14T00:51:34;4.60;;;4.20;;
9823;SDS011;4951;50.778;7.196;2023-06-14T00:58:19;4.53;;;4.13;;
9823;SDS011;4951;50.778;7.196;2023-06-14T01:16:04;6.47;;;4.90;;
9823;SDS011;4951;50.778;7.196;2023-06-14T01:18:46;4.67;;;4.27;;
9823;SDS011;4951;50.778;7.196;2023-06-14T01:21:52;5.47;;;4.97;;
9823;SDS011;4951;50.778;7.196;2023-06-14T01:31:49;4.90;;;4.40;;
9823;SDS011;4951;50.778;7.196;2023-06-14T01:38:04;5.77;;;4.67;;
9823;SDS011;4951;50.778;7.196;2023-06-14T01:44:19;4.93;;;4.50;;
9823;SDS011;4951;50.778;7.196;2023-06-14T01:47:39;4.93;;;4.33;;
9823;SDS011;4951;50.778;7.196;2023-06-14T01:50:32;4.83;;;4.43;;
9823;SDS011;4951;50.778;7.196;2023-06-14T01:57:01;5.00;;;4.60;;
9823;SDS011;4951;50.778;7.196;2023-06-14T02:03:24;4.20;;;3.90;;
9823;SDS011;4951;50.778;7.196;2023-06-14T02:06:48;5.60;;;4.27;;
9823;SDS011;4951;50.778;7.196;2023-06-14T02:09:59;5.07;;;4.57;;
9823;SDS011;4951;50.778;7.196;2023-06-14T02:12:34;6.03;;;4.20;;
9823;SDS011;4951;50.778;7.196;2023-06-14T02:15:07;5.83;;;4.80;;
9823;SDS011;4951;50.778;7.196;2023-06-14T02:18:40;5.73;;;4.60;;
9823;SDS011;4951;50.778;7.196;2023-06-14T02:21:26;4.63;;;4.23;;
9823;SDS011;4951;50.778;7.196;2023-06-14T02:24:43;5.00;;;4.60;;
9823;SDS011;4951;50.778;7.196;2023-06-14T02:27:39;5.50;;;4.77;;
9823;SDS011;4951;50.778;7.196;2023-06-14T02:33:28;5.80;;;5.17;;
9823;SDS011;4951;50.778;7.196;2023-06-14T02:36:15;5.87;;;4.83;;
9823;SDS011;4951;50.778;7.196;2023-06-14T02:42:54;5.43;;;4.57;;
9823;SDS011;4951;50.778;7.196;2023-06-14T02:45:43;5.83;;;4.40;;
9823;SDS011;4951;50.778;7.196;2023-06-14T02:48:57;6.43;;;5.00;;
9823;SDS011;4951;50.778;7.196;2023-06-14T03:01:56;5.83;;;5.23;;
9823;SDS011;4951;50.778;7.196;2023-06-14T03:05:27;6.20;;;5.03;;
9823;SDS011;4951;50.778;7.196;2023-06-14T03:09:08;5.53;;;4.67;;
9823;SDS011;4951;50.778;7.196;2023-06-14T03:29:47;5.00;;;4.57;;
9823;SDS011;4951;50.778;7.196;2023-06-14T03:33:25;5.70;;;4.50;;
9823;SDS011;4951;50.778;7.196;2023-06-14T03:37:16;5.63;;;4.67;;
9823;SDS011;4951;50.778;7.196;2023-06-14T03:39:47;5.40;;;4.90;;
9823;SDS011;4951;50.778;7.196;2023-06-14T03:43:12;5.93;;;5.20;;
9823;SDS011;4951;50.778;7.196;2023-06-14T03:46:16;5.20;;;4.70;;
9823;SDS011;4951;50.778;7.196;2023-06-14T03:48:50;5.80;;;5.30;;
9823;SDS011;4951;50.778;7.196;2023-06-14T03:52:13;6.53;;;5.60;;
9823;SDS011;4951;50.778;7.196;2023-06-14T03:55:17;5.77;;;5.20;;
9823;SDS011;4951;50.778;7.196;2023-06-14T04:02:02;6.83;;;5.03;;
9823;SDS011;4951;50.778;7.196;2023-06-14T04:05:07;5.33;;;4.83;;
9823;SDS011;4951;50.778;7.196;2023-06-14T04:08:53;5.73;;;5.23;;
9823;SDS011;4951;50.778;7.196;2023-06-14T04:11:53;5.33;;;4.83;;
9823;SDS011;4951;50.778;7.196;2023-06-14T04:15:45;6.47;;;5.80;;
9823;SDS011;4951;50.778;7.196;2023-06-14T04:22:20;6.77;;;5.33;;
9823;SDS011;4951;50.778;7.196;2023-06-14T04:25:30;8.50;;;5.20;;
9823;SDS011;4951;50.778;7.196;2023-06-14T04:29:03;5.60;;;4.97;;
9823;SDS011;4951;50.778;7.196;2023-06-14T04:36:17;6.17;;;5.47;;
9823;SDS011;4951;50.778;7.196;2023-06-14T04:46:57;6.10;;;5.30;;
9823;SDS011;4951;50.778;7.196;2023-06-14T04:49:31;5.90;;;5.27;;
9823;SDS011;4951;50.778;7.196;2023-06-14T04:55:49;10.33;;;6.30;;
9823;SDS011;4951;50.778;7.196;2023-06-14T05:02:37;15.97;;;6.53;;
9823;SDS011;4951;50.778;7.196;2023-06-14T05:05:34;13.50;;;6.97;;
9823;SDS011;4951;50.778;7.196;2023-06-14T05:08:11;13.00;;;5.73;;
9823;SDS011;4951;50.778;7.196;2023-06-14T05:11:09;18.10;;;6.63;;
9823;SDS011;4951;50.778;7.196;2023-06-14T05:15:38;15.07;;;6.67;;
9823;SDS011;4951;50.778;7.196;2023-06-14T05:18:13;14.47;;;5.87;;
9823;SDS011;4951;50.778;7.196;2023-06-14T05:21:10;14.13;;;6.33;;
9823;SDS011;4951;50.778;7.196;2023-06-14T05:24:16;13.50;;;5.83;;
9823;SDS011;4951;50.778;7.196;2023-06-14T05:28:05;9.17;;;5.37;;
9823;SDS011;4951;50.778;7.196;2023-06-14T05:30:44;16.37;;;5.70;;
9823;SDS011;4951;50.778;7.196;2023-06-14T05:38:05;13.97;;;5.40;;
9823;SDS011;4951;50.778;7.196;2023-06-14T05:41:11;11.27;;;4.43;;
9823;SDS011;4951;50.778;7.196;2023-06-14T05:43:48;8.77;;;4.07;;
9823;SDS011;4951;50.778;7.196;2023-06-14T05:46:41;5.83;;;4.00;;
9823;SDS011;4951;50.778;7.196;2023-06-14T05:50:09;6.40;;;3.93;;
9823;SDS011;4951;50.778;7.196;2023-06-14T05:52:56;4.87;;;3.73;;
9823;SDS011;4951;50.778;7.196;2023-06-14T05:55:38;5.13;;;3.93;;
9823;SDS011;4951;50.778;7.196;2023-06-14T05:58:19;6.20;;;3.93;;
9823;SDS011;4951;50.778;7.196;2023-06-14T06:01:01;6.97;;;3.70;;
9823;SDS011;4951;50.778;7.196;2023-06-14T06:04:43;8.67;;;3.90;;
9823;SDS011;4951;50.778;7.196;2023-06-14T06:16:13;9.10;;;3.80;;
9823;SDS011;4951;50.778;7.196;2023-06-14T06:19:32;6.25;;;3.10;;
9823;SDS011;4951;50.778;7.196;2023-06-14T06:23:46;5.85;;;3.50;;
9823;SDS011;4951;50.778;7.196;2023-06-14T06:32:41;5.65;;;3.40;;
9823;SDS011;4951;50.778;7.196;2023-06-14T07:06:16;5.53;;;3.20;;
9823;SDS011;4951;50.778;7.196;2023-06-14T07:15:34;3.80;;;2.63;;
9823;SDS011;4951;50.778;7.196;2023-06-14T07:18:39;6.97;;;2.75;;
9823;SDS011;4951;50.778;7.196;2023-06-14T07:25:04;9.38;;;2.58;;
9823;SDS011;4951;50.778;7.196;2023-06-14T07:32:48;2.60;;;2.40;;
9823;SDS011;4951;50.778;7.196;2023-06-14T07:36:02;7.35;;;2.80;;
9823;SDS011;4951;50.778;7.196;2023-06-14T07:55:59;2.95;;;2.30;;
9823;SDS011;4951;50.778;7.196;2023-06-14T07:59:00;4.07;;;2.15;;
9823;SDS011;4951;50.778;7.196;2023-06-14T08:02:38;3.05;;;2.22;;
9823;SDS011;4951;50.778;7.196;2023-06-14T08:05:59;2.58;;;1.98;;
9823;SDS011;4951;50.778;7.196;2023-06-14T08:08:53;6.15;;;2.47;;
9823;SDS011;4951;50.778;7.196;2023-06-14T08:29:00;5.80;;;2.20;;
9823;SDS011;4951;50.778;7.196;2023-06-14T08:31:58;2.17;;;1.90;;
9823;SDS011;4951;50.778;7.196;2023-06-14T08:45:52;3.55;;;2.15;;
9823;SDS011;4951;50.778;7.196;2023-06-14T08:48:52;2.65;;;1.85;;
9823;SDS011;4951;50.778;7.196;2023-06-14T08:51:38;4.15;;;2.05;;
9823;SDS011;4951;50.778;7.196;2023-06-14T08:54:59;2.25;;;2.00;;
9823;SDS011;4951;50.778;7.196;2023-06-14T08:58:21;3.72;;;2.00;;
9823;SDS011;4951;50.778;7.196;2023-06-14T09:01:38;2.22;;;2.00;;
9823;SDS011;4951;50.778;7.196;2023-06-14T09:20:30;1.80;;;1.70;;
9823;SDS011;4951;50.778;7.196;2023-06-14T09:23:47;3.65;;;1.85;;
9823;SDS011;4951;50.778;7.196;2023-06-14T09:27:08;4.60;;;2.17;;
9823;SDS011;4951;50.778;7.196;2023-06-14T09:39:16;6.25;;;1.88;;
9823;SDS011;4951;50.778;7.196;2023-06-14T09:42:36;2.70;;;2.03;;
9823;SDS011;4951;50.778;7.196;2023-06-14T09:45:53;5.30;;;2.25;;
9823;SDS011;4951;50.778;7.196;2023-06-14T09:49:50;3.22;;;2.33;;
9823;SDS011;4951;50.778;7.196;2023-06-14T09:52:58;2.90;;;2.50;;
9823;SDS011;4951;50.778;7.196;2023-06-14T09:55:45;2.22;;;2.10;;
9823;SDS011;4951;50.778;7.196;2023-06-14T10:04:23;5.90;;;2.38;;
9823;SDS011;4951;50.778;7.196;2023-06-14T10:14:33;3.90;;;2.30;;
9823;SDS011;4951;50.778;7.196;2023-06-14T10:17:46;4.57;;;1.90;;
9823;SDS011;4951;50.778;7.196;2023-06-14T10:20:58;2.03;;;1.83;;
9823;SDS011;4951;50.778;7.196;2023-06-14T10:24:01;3.33;;;2.28;;
9823;SDS011;4951;50.778;7.196;2023-06-14T10:27:45;2.22;;;1.83;;
9823;SDS011;4951;50.778;7.196;2023-06-14T10:30:41;2.65;;;2.17;;
9823;SDS011;4951;50.778;7.196;2023-06-14T10:34:02;4.88;;;2.58;;
9823;SDS011;4951;50.778;7.196;2023-06-14T10:52:21;2.92;;;2.20;;
9823;SDS011;4951;50.778;7.196;2023-06-14T10:54:59;6.30;;;2.33;;
9823;SDS011;4951;50.778;7.196;2023-06-14T10:57:44;4.78;;;2.00;;
9823;SDS011;4951;50.778;7.196;2023-06-14T11:00:17;2.50;;;2.00;;
9823;SDS011;4951;50.778;7.196;2023-06-14T11:13:26;3.38;;;1.95;;
9823;SDS011;4951;50.778;7.196;2023-06-14T11:16:36;3.15;;;2.20;;
9823;SDS011;4951;50.778;7.196;2023-06-14T11:19:43;3.22;;;1.90;;
9823;SDS011;4951;50.778;7.196;2023-06-14T11:28:41;3.15;;;1.70;;
9823;SDS011;4951;50.778;7.196;2023-06-14T11:31:11;3.08;;;1.42;;
9823;SDS011;4951;50.778;7.196;2023-06-14T11:36:18;1.85;;;1.60;;
9823;SDS011;4951;50.778;7.196;2023-06-14T11:37:07;4.35;;;1.60;;
9823;SDS011;4951;50.778;7.196;2023-06-14T11:40:04;1.98;;;1.50;;
9823;SDS011;4951;50.778;7.196;2023-06-14T11:42:57;5.03;;;1.40;;
9823;SDS011;4951;50.778;7.196;2023-06-14T11:52:22;4.85;;;1.67;;
9823;SDS011;4951;50.778;7.196;2023-06-14T11:55:16;2.65;;;1.50;;
9823;SDS011;4951;50.778;7.196;2023-06-14T11:57:56;1.75;;;1.65;;
9823;SDS011;4951;50.778;7.196;2023-06-14T12:00:41;1.63;;;1.50;;
9823;SDS011;4951;50.778;7.196;2023-06-14T12:03:48;1.70;;;1.60;;
9823;SDS011;4951;50.778;7.196;2023-06-14T12:10:21;2.55;;;1.50;;
9823;SDS011;4951;50.778;7.196;2023-06-14T12:13:33;2.03;;;1.40;;
9823;SDS011;4951;50.778;7.196;2023-06-14T12:19:25;3.33;;;1.45;;
9823;SDS011;4951;50.778;7.196;2023-06-14T12:22:19;4.05;;;1.50;;
9823;SDS011;4951;50.778;7.196;2023-06-14T12:42:47;2.72;;;1.70;;
9823;SDS011;4951;50.778;7.196;2023-06-14T12:45:20;1.77;;;1.63;;
9823;SDS011;4951;50.778;7.196;2023-06-14T12:48:04;2.97;;;1.63;;
9823;SDS011;4951;50.778;7.196;2023-06-14T12:50:34;7.82;;;2.00;;
9823;SDS011;4951;50.778;7.196;2023-06-14T12:53:37;4.55;;;1.90;;
9823;SDS011;4951;50.778;7.196;2023-06-14T12:57:05;2.75;;;1.60;;
9823;SDS011;4951;50.778;7.196;2023-06-14T13:01:22;2.35;;;1.80;;
9823;SDS011;4951;50.778;7.196;2023-06-14T13:03:26;2.47;;;1.88;;
9823;SDS011;4951;50.778;7.196;2023-06-14T13:12:19;2.65;;;1.70;;
9823;SDS011;4951;50.778;7.196;2023-06-14T13:18:58;2.35;;;1.92;;
9823;SDS011;4951;50.778;7.196;2023-06-14T13:22:22;2.20;;;2.00;;
9823;SDS011;4951;50.778;7.196;2023-06-14T13:30:48;2.00;;;1.80;;
9823;SDS011;4951;50.778;7.196;2023-06-14T13:39:10;3.58;;;1.80;;
9823;SDS011;4951;50.778;7.196;2023-06-14T13:42:13;3.40;;;2.03;;
9823;SDS011;4951;50.778;7.196;2023-06-14T13:45:24;4.45;;;1.80;;
9823;SDS011;4951;50.778;7.196;2023-06-14T13:48:11;2.55;;;1.88;;
9823;SDS011;4951;50.778;7.196;2023-06-14T13:51:49;3.47;;;1.90;;
9823;SDS011;4951;50.778;7.196;2023-06-14T13:56:11;2.17;;;1.92;;
9823;SDS011;4951;50.778;7.196;2023-06-14T14:01:17;2.75;;;1.88;;
9823;SDS011;4951;50.778;7.196;2023-06-14T14:04:04;3.00;;;1.95;;
9823;SDS011;4951;50.778;7.196;2023-06-14T14:06:46;1.90;;;1.80;;
9823;SDS011;4951;50.778;7.196;2023-06-14T14:10:13;2.67;;;2.00;;
9823;SDS011;4951;50.778;7.196;2023-06-14T14:14:19;2.17;;;1.90;;
9823;SDS011;4951;50.778;7.196;2023-06-14T14:17:34;8.00;;;2.00;;
9823;SDS011;4951;50.778;7.196;2023-06-14T14:20:52;2.45;;;1.90;;
9823;SDS011;4951;50.778;7.196;2023-06-14T14:23:42;2.65;;;1.90;;
9823;SDS011;4951;50.778;7.196;2023-06-14T14:26:42;9.65;;;2.22;;
9823;SDS011;4951;50.778;7.196;2023-06-14T14:29:52;2.28;;;1.80;;
9823;SDS011;4951;50.778;7.196;2023-06-14T14:32:35;2.17;;;1.70;;
9823;SDS011;4951;50.778;7.196;2023-06-14T14:35:51;4.30;;;2.13;;
9823;SDS011;4951;50.778;7.196;2023-06-14T14:38:54;2.45;;;1.80;;
9823;SDS011;4951;50.778;7.196;2023-06-14T14:45:29;2.13;;;1.90;;
9823;SDS011;4951;50.778;7.196;2023-06-14T14:48:31;2.22;;;1.77;;
9823;SDS011;4951;50.778;7.196;2023-06-14T14:51:45;3.67;;;2.00;;
9823;SDS011;4951;50.778;7.196;2023-06-14T14:54:14;4.45;;;1.98;;
9823;SDS011;4951;50.778;7.196;2023-06-14T14:56:52;4.28;;;1.80;;
9823;SDS011;4951;50.778;7.196;2023-06-14T15:00:21;2.45;;;1.80;;
9823;SDS011;4951;50.778;7.196;2023-06-14T15:03:15;2.20;;;2.00;;
9823;SDS011;4951;50.778;7.196;2023-06-14T15:06:13;3.03;;;1.90;;
9823;SDS011;4951;50.778;7.196;2023-06-14T15:09:26;3.20;;;1.80;;
9823;SDS011;4951;50.778;7.196;2023-06-14T15:12:14;1.98;;;1.85;;
9823;SDS011;4951;50.778;7.196;2023-06-14T15:15:22;2.10;;;1.90;;
9823;SDS011;4951;50.778;7.196;2023-06-14T15:17:57;1.80;;;1.70;;
9823;SDS011;4951;50.778;7.196;2023-06-14T15:21:32;7.70;;;2.00;;
9823;SDS011;4951;50.778;7.196;2023-06-14T15:25:22;2.03;;;1.70;;
9823;SDS011;4951;50.778;7.196;2023-06-14T15:26:52;1.83;;;1.73;;
9823;SDS011;4951;50.778;7.196;2023-06-14T15:30:08;3.53;;;1.80;;
9823;SDS011;4951;50.778;7.196;2023-06-14T15:32:30;4.38;;;2.10;;
9823;SDS011;4951;50.778;7.196;2023-06-14T15:36:02;4.60;;;2.10;;
9823;SDS011;4951;50.778;7.196;2023-06-14T15:39:05;2.75;;;2.08;;
9823;SDS011;4951;50.778;7.196;2023-06-14T15:42:17;2.83;;;2.53;;
9823;SDS011;4951;50.778;7.196;2023-06-14T15:56:18;9.02;;;2.30;;
9823;SDS011;4951;50.778;7.196;2023-06-14T15:59:12;4.57;;;1.98;;
9823;SDS011;4951;50.778;7.196;2023-06-14T16:02:38;2.95;;;1.95;;
9823;SDS011;4951;50.778;7.196;2023-06-14T16:05:33;2.22;;;2.03;;
9823;SDS011;4951;50.778;7.196;2023-06-14T16:09:00;2.97;;;2.20;;
9823;SDS011;4951;50.778;7.196;2023-06-14T16:11:36;2.55;;;1.92;;
9823;SDS011;4951;50.778;7.196;2023-06-14T16:14:19;3.40;;;2.00;;
9823;SDS011;4951;50.778;7.196;2023-06-14T16:16:48;2.15;;;1.70;;
9823;SDS011;4951;50.778;7.196;2023-06-14T16:20:35;2.60;;;1.85;;
9823;SDS011;4951;50.778;7.196;2023-06-14T16:23:58;4.22;;;2.00;;
9823;SDS011;4951;50.778;7.196;2023-06-14T16:26:48;5.78;;;2.55;;
9823;SDS011;4951;50.778;7.196;2023-06-14T16:32:19;2.75;;;2.00;;
9823;SDS011;4951;50.778;7.196;2023-06-14T16:38:03;2.30;;;2.10;;
9823;SDS011;4951;50.778;7.196;2023-06-14T16:41:22;3.22;;;1.80;;
9823;SDS011;4951;50.778;7.196;2023-06-14T16:45:19;3.38;;;2.03;;
9823;SDS011;4951;50.778;7.196;2023-06-14T16:47:51;2.17;;;1.98;;
9823;SDS011;4951;50.778;7.196;2023-06-14T16:50:24;2.28;;;2.08;;
9823;SDS011;4951;50.778;7.196;2023-06-14T16:53:18;2.75;;;2.17;;
9823;SDS011;4951;50.778;7.196;2023-06-14T17:00:12;2.30;;;2.10;;
9823;SDS011;4951;50.778;7.196;2023-06-14T17:05:59;3.85;;;2.20;;
9823;SDS011;4951;50.778;7.196;2023-06-14T17:09:15;2.33;;;2.10;;
9823;SDS011;4951;50.778;7.196;2023-06-14T17:15:46;4.10;;;2.30;;
9823;SDS011;4951;50.778;7.196;2023-06-14T17:18:15;4.78;;;1.90;;
9823;SDS011;4951;50.778;7.196;2023-06-14T17:20:50;2.30;;;2.08;;
9823;SDS011;4951;50.778;7.196;2023-06-14T17:23:19;4.47;;;2.50;;
9823;SDS011;4951;50.778;7.196;2023-06-14T17:26:48;2.60;;;2.40;;
9823;SDS011;4951;50.778;7.196;2023-06-14T17:29:54;3.67;;;2.20;;
9823;SDS011;4951;50.778;7.196;2023-06-14T17:46:59;2.42;;;2.22;;
9823;SDS011;4951;50.778;7.196;2023-06-14T17:50:59;3.33;;;2.17;;
9823;SDS011;4951;50.778;7.196;2023-06-14T17:53:40;7.18;;;2.17;;
9823;SDS011;4951;50.778;7.196;2023-06-14T18:06:21;2.88;;;2.00;;
9823;SDS011;4951;50.778;7.196;2023-06-14T18:09:36;2.88;;;2.03;;
9823;SDS011;4951;50.778;7.196;2023-06-14T18:17:54;2.83;;;2.15;;
9823;SDS011;4951;50.778;7.196;2023-06-14T18:29:23;3.72;;;2.20;;
9823;SDS011;4951;50.778;7.196;2023-06-14T18:32:21;2.72;;;2.30;;
9823;SDS011;4951;50.778;7.196;2023-06-14T19:43:32;3.72;;;2.88;;
9823;SDS011;4951;50.778;7.196;2023-06-14T19:46:30;2.83;;;2.10;;
9823;SDS011;4951;50.778;7.196;2023-06-14T19:53:37;5.15;;;2.45;;
9823;SDS011;4951;50.778;7.196;2023-06-14T19:56:38;2.60;;;2.40;;
9823;SDS011;4951;50.778;7.196;2023-06-14T19:59:47;3.67;;;2.50;;
9823;SDS011;4951;50.778;7.196;2023-06-14T20:02:55;2.53;;;2.33;;
9823;SDS011;4951;50.778;7.196;2023-06-14T20:06:00;3.85;;;2.40;;
9823;SDS011;4951;50.778;7.196;2023-06-14T20:09:19;2.72;;;2.53;;
9823;SDS011;4951;50.778;7.196;2023-06-14T20:13:09;2.67;;;2.44;;
9823;SDS011;4951;50.778;7.196;2023-06-14T20:31:14;3.88;;;2.40;;
9823;SDS011;4951;50.778;7.196;2023-06-14T20:35:07;3.35;;;2.45;;
9823;SDS011;4951;50.778;7.196;2023-06-14T20:38:39;3.83;;;2.72;;
9823;SDS011;4951;50.778;7.196;2023-06-14T20:41:47;4.32;;;2.63;;
9823;SDS011;4951;50.778;7.196;2023-06-14T20:45:39;2.80;;;2.60;;
9823;SDS011;4951;50.778;7.196;2023-06-14T20:55:28;3.58;;;2.40;;
9823;SDS011;4951;50.778;7.196;2023-06-14T20:59:35;2.90;;;2.60;;
9823;SDS011;4951;50.778;7.196;2023-06-14T21:10:11;2.85;;;2.60;;
9823;SDS011;4951;50.778;7.196;2023-06-14T21:12:55;3.22;;;2.20;;
9823;SDS011;4951;50.778;7.196;2023-06-14T21:31:08;3.75;;;2.75;;
9823;SDS011;4951;50.778;7.196;2023-06-14T21:38:17;2.83;;;2.63;;
9823;SDS011;4951;50.778;7.196;2023-06-14T21:45:09;3.55;;;2.60;;
9823;SDS011;4951;50.778;7.196;2023-06-14T21:55:35;4.37;;;3.50;;
9823;SDS011;4951;50.778;7.196;2023-06-14T21:59:12;4.07;;;3.00;;
9823;SDS011;4951;50.778;7.196;2023-06-14T22:03:12;3.10;;;2.80;;
9823;SDS011;4951;50.778;7.196;2023-06-14T22:06:29;3.37;;;2.80;;
9823;SDS011;4951;50.778;7.196;2023-06-14T22:13:40;3.10;;;2.77;;
9823;SDS011;4951;50.778;7.196;2023-06-14T22:20:12;2.77;;;2.57;;
9823;SDS011;4951;50.778;7.196;2023-06-14T22:23:12;5.30;;;2.90;;
9823;SDS011;4951;50.778;7.196;2023-06-14T22:27:58;4.80;;;2.60;;
9823;SDS011;4951;50.778;7.196;2023-06-14T22:30:08;2.63;;;2.43;;
9823;SDS011;4951;50.778;7.196;2023-06-14T22:44:34;3.00;;;2.80;;
9823;SDS011;4951;50.778;7.196;2023-06-14T22:49:02;5.50;;;2.70;;
9823;SDS011;4951;50.778;7.196;2023-06-14T22:54:55;2.77;;;2.30;;
9823;SDS011;4951;50.778;7.196;2023-06-14T22:58:21;2.90;;;2.63;;
9823;SDS011;4951;50.778;7.196;2023-06-14T23:16:56;3.60;;;2.80;;
9823;SDS011;4951;50.778;7.196;2023-06-14T23:29:38;3.37;;;2.73;;
9823;SDS011;4951;50.778;7.196;2023-06-14T23:40:32;3.10;;;2.90;;
9823;SDS011;4951;50.778;7.196;2023-06-14T23:51:29;2.70;;;2.50;;
